Weather History for Liberal, KS

Change the Weather History Date:

Thursday, February 20, 2014

  Actual Average Record
Temperature  
Mean Temperature 38 °F -  
Max Temperature 55 °F 54 °F 76 °F (1972)
Min Temperature 21 °F 29 °F 8 °F (1939)
Degree Days  
Heating Degree Days 27    
Moisture  
Dew Point 17 °F    
Average Humidity 44    
Maximum Humidity 75    
Minimum Humidity 18    
Precipitation  
Precipitation 0.00 in - - ()
Sea Level Pressure  
Sea Level Pressure 29.86 in    
Wind  
Wind Speed 22 mph (NW)    
Max Wind Speed 51 mph    
Max Gust Speed 63 mph    
Visibility 9 miles    
Events      
Averages and records for this station are not official NWS values.
T = Trace of Precipitation, MM = Missing Value Source: NWS Daily Summary

Daily Weather History Graph

Daily Weather History Graph

Search for Another Location

Airport:

Trip Planner

Search our weather history database for the weather conditions in past years. The results will help you decide how hot, cold, wet, or windy it might be!

Date:

Astronomy

Feb. 20, 2014 Rise Set
Actual Time 7:26 AM CST 6:29 PM CST
Civil Twilight 7:00 AM CST 6:55 PM CST
Nautical Twilight 6:29 AM CST 7:25 PM CST
Astronomical Twilight 5:59 AM CST 7:55 PM CST
Moon No Moon Rise 10:18 AM CST (2/20)
Length of Visible Light 11h 55m
Length of Day
11h 02m
Waning Gibbous, 70% of the Moon is Illuminated
Feb 20
Waning Gibbous
Feb 22
Last Quarter
Mar 1
New
Mar 8
First Quarter
Mar 16
Full

Hourly Weather History & Observations

Time (CST) Temp. Windchill Dew Point Humidity Pressure Visibility Wind Dir Wind Speed Gust Speed Precip Events Conditions
12:15 AM 46.4 °F 41.5 °F 32.0 °F 57% 29.40 in 10.0 mi South 10.4 mph - N/A   Clear
12:35 AM 51.8 °F - 35.6 °F 54% 29.39 in 10.0 mi SSW 13.8 mph 24.2 mph N/A   Clear
12:55 AM 48.2 °F - 28.4 °F 46% 29.36 in 10.0 mi West 5.8 mph - N/A   Clear
1:15 AM 46.4 °F 41.1 °F 26.6 °F 46% 29.38 in 10.0 mi SSW 11.5 mph - N/A   Clear
1:35 AM 51.8 °F - 28.4 °F 41% 29.38 in 10.0 mi WSW 15.0 mph - N/A   Clear
1:55 AM 50.0 °F - 24.8 °F 37% 29.38 in 10.0 mi WSW 12.7 mph - N/A   Partly Cloudy
2:15 AM 53.6 °F - 28.4 °F 38% 29.39 in 9.0 mi WNW 24.2 mph 34.5 mph N/A   Clear
2:35 AM 55.4 °F - 26.6 °F 33% 29.40 in 10.0 mi WNW 25.3 mph 31.1 mph N/A   Clear
2:55 AM 51.8 °F - 24.8 °F 35% 29.44 in 10.0 mi WNW 29.9 mph 38.0 mph N/A   Clear
3:15 AM 48.2 °F - 26.6 °F 43% 29.47 in 5.0 mi WNW 34.5 mph 41.4 mph N/A   Clear
3:35 AM 46.4 °F 35.7 °F 26.6 °F 46% 29.50 in 5.0 mi NW 41.4 mph 47.2 mph N/A   Clear
3:55 AM 41.0 °F 28.2 °F 24.8 °F 53% 29.54 in 2.5 mi NW 41.4 mph 54.1 mph N/A   Partly Cloudy
4:15 AM 39.2 °F 25.8 °F 26.6 °F 61% 29.57 in 3.0 mi NNW 40.3 mph 58.7 mph N/A   Mostly Cloudy
4:35 AM 39.2 °F 25.5 °F 26.6 °F 61% 29.60 in 5.0 mi NNW 42.6 mph 57.5 mph N/A   Overcast
4:55 AM 37.4 °F 24.0 °F 26.6 °F 65% 29.62 in 10.0 mi NNW 35.7 mph 55.2 mph N/A   Mostly Cloudy
5:15 AM - - - N/A% 29.64 in 9.0 mi NNW 50.6 mph 63.3 mph N/A   Overcast
5:35 AM 35.6 °F 20.3 °F 24.8 °F 65% 29.69 in 8.0 mi NNW 43.7 mph 51.8 mph N/A   Scattered Clouds
5:55 AM 33.8 °F 18.6 °F 24.8 °F 70% 29.71 in 5.0 mi NNW 38.0 mph 48.3 mph N/A   Mostly Cloudy
6:15 AM 33.8 °F 20.3 °F 26.6 °F 75% 29.75 in 5.0 mi North 28.8 mph 46.0 mph N/A   Overcast
6:35 AM 33.8 °F 19.0 °F 26.6 °F 75% 29.76 in 9.0 mi North 35.7 mph 41.4 mph N/A   Overcast
6:55 AM 33.8 °F 18.8 °F 26.6 °F 75% 29.77 in 10.0 mi North 36.8 mph 44.9 mph N/A   Mostly Cloudy
7:15 AM 33.8 °F 20.8 °F 26.6 °F 75% 29.78 in 10.0 mi North 26.5 mph 43.7 mph N/A   Partly Cloudy
7:35 AM 33.8 °F 20.3 °F 24.8 °F 70% 29.81 in 10.0 mi North 28.8 mph 38.0 mph N/A   Scattered Clouds
7:55 AM 33.8 °F 21.3 °F 24.8 °F 70% 29.85 in 10.0 mi NNW 24.2 mph 35.7 mph N/A   Mostly Cloudy
8:15 AM 33.8 °F 21.6 °F 26.6 °F 75% 29.89 in 10.0 mi NW 23.0 mph 28.8 mph N/A   Overcast
8:35 AM 35.6 °F 24.0 °F 24.8 °F 65% 29.88 in 10.0 mi NNW 23.0 mph 31.1 mph N/A   Mostly Cloudy
8:55 AM 35.6 °F 23.7 °F 26.6 °F 70% 29.89 in 10.0 mi NNW 24.2 mph 29.9 mph N/A   Clear
9:15 AM 37.4 °F 26.6 °F 26.6 °F 65% 29.90 in 10.0 mi NNW 21.9 mph 31.1 mph N/A   Clear
9:35 AM 37.4 °F 26.4 °F 26.6 °F 65% 29.92 in 10.0 mi NNW 23.0 mph 28.8 mph N/A   Clear
9:55 AM 39.2 °F 28.5 °F 26.6 °F 61% 29.94 in 10.0 mi NW 24.2 mph 29.9 mph N/A   Clear
10:15 AM 41.0 °F 30.5 °F 26.6 °F 57% 29.94 in 10.0 mi NW 26.5 mph 32.2 mph N/A   Clear
10:35 AM 42.8 °F 33.5 °F 24.8 °F 49% 29.95 in 10.0 mi NNW 23.0 mph 29.9 mph N/A   Clear
10:55 AM 42.8 °F 33.3 °F 23.0 °F 46% 29.96 in 10.0 mi NNW 24.2 mph 31.1 mph N/A   Clear
11:15 AM 44.6 °F 35.1 °F 21.2 °F 39% 29.96 in 10.0 mi NNW 27.6 mph 33.4 mph N/A   Clear
11:35 AM 44.6 °F 35.1 °F 19.4 °F 37% 29.97 in 10.0 mi NNW 27.6 mph 34.5 mph N/A   Clear
11:55 AM 46.4 °F 37.9 °F 17.6 °F 32% 29.97 in 10.0 mi NNW 25.3 mph 34.5 mph N/A   Clear
12:15 PM 46.4 °F 37.0 °F 17.6 °F 32% 29.97 in 10.0 mi NW 31.1 mph 39.1 mph N/A   Clear
12:35 PM 48.2 °F - 17.6 °F 30% 29.98 in 10.0 mi NW 28.8 mph 38.0 mph N/A   Clear
12:55 PM 48.2 °F - 15.8 °F 27% 29.98 in 10.0 mi NNW 32.2 mph 41.4 mph N/A   Clear
1:15 PM 48.2 °F - 15.8 °F 27% 29.98 in 9.0 mi NW 34.5 mph 40.3 mph N/A   Clear
1:35 PM 48.2 °F - 14.0 °F 25% 29.98 in 9.0 mi NNW 27.6 mph 36.8 mph N/A   Clear
1:55 PM 46.4 °F 37.5 °F 12.2 °F 25% 29.99 in 10.0 mi NW 27.6 mph 35.7 mph N/A   Clear
2:15 PM 44.6 °F 35.9 °F 8.6 °F 23% 29.99 in 10.0 mi WNW 23.0 mph 39.1 mph N/A   Partly Cloudy
2:35 PM 46.4 °F 37.9 °F 10.4 °F 23% 29.99 in 10.0 mi WNW 25.3 mph 36.8 mph N/A   Partly Cloudy
2:55 PM 46.4 °F 38.5 °F 12.2 °F 25% 29.99 in 10.0 mi WNW 21.9 mph 32.2 mph N/A   Clear
3:15 PM 48.2 °F - 12.2 °F 24% 30.00 in 8.0 mi NW 25.3 mph 34.5 mph N/A   Clear
3:35 PM 46.4 °F 37.9 °F 8.6 °F 22% 30.01 in 9.0 mi NNW 25.3 mph 36.8 mph N/A   Partly Cloudy
3:55 PM 44.6 °F 35.5 °F 8.6 °F 23% 30.02 in 10.0 mi NNW 25.3 mph 36.8 mph N/A   Scattered Clouds
4:15 PM 44.6 °F 36.4 °F 12.2 °F 27% 30.03 in 10.0 mi NNW 20.7 mph 27.6 mph N/A   Partly Cloudy
4:35 PM 46.4 °F 38.7 °F 14.0 °F 27% 30.02 in 10.0 mi NW 20.7 mph 29.9 mph N/A   Partly Cloudy
4:55 PM 46.4 °F 39.2 °F 12.2 °F 25% 30.02 in 10.0 mi NW 18.4 mph 24.2 mph N/A   Clear
5:15 PM 46.4 °F 37.7 °F 8.6 °F 22% 30.02 in 10.0 mi NW 26.5 mph 32.2 mph N/A   Clear
5:35 PM 44.6 °F 35.5 °F 6.8 °F 21% 30.03 in 10.0 mi NW 25.3 mph 33.4 mph N/A   Clear
5:55 PM 44.6 °F 36.1 °F 6.8 °F 21% 30.03 in 10.0 mi NW 21.9 mph 31.1 mph N/A   Clear
6:15 PM 44.6 °F 37.2 °F 3.2 °F 18% 30.03 in 10.0 mi NW 17.3 mph 26.5 mph N/A   Clear
6:35 PM 41.0 °F 34.3 °F 3.2 °F 21% 30.04 in 10.0 mi NNW 11.5 mph - N/A   Clear
6:55 PM 37.4 °F 31.4 °F 3.2 °F 24% 30.04 in 10.0 mi NW 8.1 mph - N/A   Clear
7:15 PM 35.6 °F 29.9 °F 3.2 °F 26% 30.04 in 10.0 mi WNW 6.9 mph - N/A   Clear
7:35 PM 33.8 °F 27.7 °F 6.8 °F 32% 30.06 in 10.0 mi NNW 6.9 mph - N/A   Clear
7:55 PM 30.2 °F 22.6 °F 3.2 °F 32% 30.05 in 10.0 mi NNW 8.1 mph - N/A   Clear
8:15 PM 30.2 °F 23.4 °F 6.8 °F 37% 30.06 in 10.0 mi NW 6.9 mph - N/A   Clear
8:35 PM 26.6 °F 19.1 °F 3.2 °F 37% 30.06 in 10.0 mi West 6.9 mph - N/A   Clear
8:55 PM 26.6 °F 18.2 °F 6.8 °F 43% 30.06 in 10.0 mi West 8.1 mph - N/A   Clear
9:15 PM 24.8 °F 15.3 °F 6.8 °F 46% 30.06 in 10.0 mi West 9.2 mph - N/A   Clear
9:35 PM 24.8 °F 14.6 °F 6.8 °F 46% 30.06 in 10.0 mi West 10.4 mph - N/A   Clear
9:55 PM 24.8 °F 14.6 °F 6.8 °F 46% 30.06 in 10.0 mi West 10.4 mph - N/A   Clear
10:15 PM 23.0 °F 13.9 °F 6.8 °F 50% 30.06 in 10.0 mi WSW 8.1 mph - N/A   Clear
10:35 PM 23.0 °F 12.4 °F 6.8 °F 50% 30.06 in 10.0 mi West 10.4 mph - N/A   Clear
10:55 PM 21.2 °F 10.9 °F 8.6 °F 58% 30.06 in 10.0 mi WSW 9.2 mph - N/A   Clear
11:15 PM 23.0 °F 13.1 °F 8.6 °F 54% 30.05 in 10.0 mi WSW 9.2 mph - N/A   Clear
11:35 PM 23.0 °F 12.4 °F 8.6 °F 54% 30.05 in 10.0 mi WSW 10.4 mph - N/A   Clear
11:55 PM 23.0 °F 12.4 °F 8.6 °F 54% 30.05 in 10.0 mi WSW 10.4 mph - N/A   Clear